createdAt,value
2018-08-18T00:01:29.189Z,3.73
2018-08-18T00:04:21.621Z,4.57
2018-08-18T00:06:59.009Z,3.80
2018-08-18T00:09:36.684Z,4.00
2018-08-18T00:12:18.354Z,4.57
2018-08-18T00:14:54.150Z,4.50
2018-08-18T00:17:30.982Z,4.57
2018-08-18T00:20:09.199Z,3.90
2018-08-18T00:22:45.027Z,4.63
2018-08-18T00:25:24.194Z,4.60
2018-08-18T00:28:04.298Z,4.77
2018-08-18T00:30:43.957Z,4.70
2018-08-18T00:33:23.067Z,4.67
2018-08-18T00:36:00.115Z,4.13
2018-08-18T00:38:36.882Z,4.07
2018-08-18T00:41:12.259Z,4.17
2018-08-18T00:43:49.858Z,4.20
2018-08-18T00:46:31.671Z,4.30
2018-08-18T00:49:08.966Z,4.23
2018-08-18T00:51:48.486Z,4.50
2018-08-18T00:54:24.590Z,5.07
2018-08-18T00:57:02.570Z,4.90
2018-08-18T00:59:45.030Z,5.07
2018-08-18T01:02:22.311Z,5.20
2018-08-18T01:05:01.606Z,5.43
2018-08-18T01:07:37.585Z,5.30
2018-08-18T01:10:14.595Z,5.50
2018-08-18T01:12:50.835Z,5.97
2018-08-18T01:15:28.466Z,6.10
2018-08-18T01:18:04.198Z,5.13
2018-08-18T01:20:40.163Z,6.17
2018-08-18T01:23:16.744Z,5.40
2018-08-18T01:25:53.473Z,5.60
2018-08-18T01:28:29.026Z,5.33
2018-08-18T01:31:16.827Z,5.23
2018-08-18T01:33:53.942Z,5.63
2018-08-18T01:36:30.435Z,5.97
2018-08-18T01:39:08.707Z,5.80
2018-08-18T01:41:47.493Z,5.37
2018-08-18T01:44:25.566Z,6.13
2018-08-18T01:47:07.218Z,7.33
2018-08-18T01:49:44.768Z,6.60
2018-08-18T01:52:22.735Z,6.15
2018-08-18T01:55:00.062Z,6.10
2018-08-18T01:57:35.743Z,5.70
2018-08-18T02:00:24.363Z,5.70
2018-08-18T02:03:00.136Z,5.50
2018-08-18T02:05:36.910Z,5.97
2018-08-18T02:08:12.566Z,5.08
2018-08-18T02:10:50.085Z,5.28
2018-08-18T02:13:26.934Z,6.60
2018-08-18T02:16:03.922Z,5.78
2018-08-18T02:18:42.913Z,5.70
2018-08-18T02:21:29.855Z,5.80
2018-08-18T02:24:07.141Z,5.90
2018-08-18T02:26:42.966Z,6.50
2018-08-18T02:29:20.034Z,5.50
2018-08-18T02:31:57.130Z,5.58
2018-08-18T02:34:32.856Z,4.95
2018-08-18T02:37:09.568Z,5.08
2018-08-18T02:39:45.498Z,5.95
2018-08-18T02:42:21.805Z,5.78
2018-08-18T02:45:00.776Z,5.67
2018-08-18T02:47:37.534Z,6.40
2018-08-18T02:50:15.037Z,6.12
2018-08-18T02:52:50.578Z,7.50
2018-08-18T02:55:29.310Z,6.15
2018-08-18T02:58:06.047Z,6.08
2018-08-18T03:00:43.580Z,6.83
2018-08-18T03:03:20.212Z,7.00
2018-08-18T03:06:00.115Z,5.95
2018-08-18T03:08:37.104Z,6.75
2018-08-18T03:11:13.536Z,6.40
2018-08-18T03:13:51.485Z,6.95
2018-08-18T03:16:30.838Z,7.70
2018-08-18T03:19:07.903Z,7.30
2018-08-18T03:21:45.160Z,8.28
2018-08-18T03:24:21.781Z,8.20
2018-08-18T03:26:59.570Z,7.78
2018-08-18T03:29:43.446Z,8.65
2018-08-18T03:32:20.053Z,8.48
2018-08-18T03:34:55.748Z,8.35
2018-08-18T03:37:34.508Z,8.05
2018-08-18T03:40:11.130Z,9.30
2018-08-18T03:42:46.946Z,8.78
2018-08-18T03:45:18.305Z,9.35
2018-08-18T03:47:55.711Z,9.58
2018-08-18T03:50:42.575Z,8.63
2018-08-18T03:53:19.357Z,9.05
2018-08-18T03:56:00.736Z,9.80
2018-08-18T03:58:41.843Z,8.60
2018-08-18T04:01:23.150Z,9.60
2018-08-18T04:04:04.262Z,9.20
2018-08-18T04:06:42.963Z,8.70
2018-08-18T04:09:24.948Z,8.83
2018-08-18T04:11:57.409Z,9.35
2018-08-18T04:14:45.642Z,9.65
2018-08-18T04:17:28.046Z,8.70
2018-08-18T04:20:03.823Z,9.18
2018-08-18T04:22:40.143Z,9.85
2018-08-18T04:25:16.343Z,8.50
2018-08-18T04:27:53.568Z,8.70
2018-08-18T04:30:29.485Z,9.55
2018-08-18T04:33:08.540Z,8.50
2018-08-18T04:35:51.346Z,9.03
2018-08-18T04:38:21.620Z,9.18
2018-08-18T04:40:59.430Z,8.20
2018-08-18T04:43:35.256Z,7.95
2018-08-18T04:46:11.630Z,8.63
2018-08-18T04:48:48.720Z,8.93
2018-08-18T04:51:25.505Z,8.43
2018-08-18T04:54:02.964Z,8.03
2018-08-18T04:56:40.078Z,8.15
2018-08-18T04:59:15.885Z,7.85
2018-08-18T05:01:51.677Z,7.58
2018-08-18T05:04:27.758Z,9.18
2018-08-18T05:07:04.258Z,7.65
2018-08-18T05:09:43.077Z,7.97
2018-08-18T05:12:20.898Z,7.65
2018-08-18T05:14:57.778Z,8.55
2018-08-18T05:17:34.251Z,8.28
2018-08-18T05:20:15.583Z,7.55
2018-08-18T05:22:51.335Z,9.00
2018-08-18T05:25:38.154Z,7.03
2018-08-18T05:28:15.418Z,7.47
2018-08-18T05:30:54.030Z,7.80
2018-08-18T05:33:32.850Z,8.43
2018-08-18T05:36:10.222Z,7.62
2018-08-18T05:38:51.355Z,7.28
2018-08-18T05:41:28.928Z,8.28
2018-08-18T05:44:05.135Z,8.15
2018-08-18T05:46:41.997Z,8.30
2018-08-18T05:49:19.237Z,8.43
2018-08-18T05:51:56.648Z,7.95
2018-08-18T05:54:32.559Z,8.60
2018-08-18T05:57:08.950Z,7.40
2018-08-18T05:59:46.442Z,7.17
2018-08-18T06:02:23.198Z,6.70
2018-08-18T06:04:59.985Z,6.60
2018-08-18T06:07:39.181Z,5.97
2018-08-18T06:10:16.666Z,6.20
2018-08-18T06:12:52.406Z,5.40
2018-08-18T06:15:31.466Z,5.50
2018-08-18T06:18:09.714Z,4.53
2018-08-18T06:20:46.748Z,5.60
2018-08-18T06:23:23.474Z,4.30
2018-08-18T06:26:00.678Z,4.77
2018-08-18T06:28:37.478Z,5.00
2018-08-18T06:31:16.849Z,3.70
2018-08-18T06:33:52.705Z,3.63
2018-08-18T06:36:28.224Z,4.30
2018-08-18T06:39:05.155Z,3.37
2018-08-18T06:41:43.240Z,4.33
2018-08-18T06:44:27.498Z,3.23
2018-08-18T06:47:04.145Z,3.93
2018-08-18T06:49:35.765Z,3.60
2018-08-18T06:52:14.868Z,3.30
2018-08-18T06:54:52.116Z,3.53
2018-08-18T06:57:38.428Z,3.60
2018-08-18T07:00:17.349Z,3.50
2018-08-18T07:02:53.535Z,3.80
2018-08-18T07:05:33.131Z,3.70
2018-08-18T07:08:09.734Z,3.63
2018-08-18T07:10:49.824Z,3.57
2018-08-18T07:13:25.551Z,3.83
2018-08-18T07:16:01.332Z,3.60
2018-08-18T07:18:37.240Z,3.80
2018-08-18T07:21:13.232Z,4.03
2018-08-18T07:23:49.443Z,3.33
2018-08-18T07:26:26.491Z,3.43
2018-08-18T07:29:02.563Z,3.50
2018-08-18T07:31:38.451Z,4.00
2018-08-18T07:34:15.136Z,3.40
2018-08-18T07:36:52.154Z,3.93
2018-08-18T07:39:28.859Z,4.00
2018-08-18T07:42:07.737Z,3.60
2018-08-18T07:44:44.705Z,4.47
2018-08-18T07:47:30.455Z,3.80
2018-08-18T07:50:07.243Z,3.47
2018-08-18T07:52:39.864Z,4.00
2018-08-18T07:55:15.555Z,2.60
2018-08-18T07:57:57.064Z,3.50
2018-08-18T08:00:37.418Z,3.23
2018-08-18T08:03:14.549Z,3.00
2018-08-18T08:05:53.831Z,3.47
2018-08-18T08:08:34.925Z,3.20
2018-08-18T08:11:14.266Z,2.53
2018-08-18T08:13:50.640Z,3.23
2018-08-18T08:16:28.117Z,2.83
2018-08-18T08:19:05.743Z,2.30
2018-08-18T08:21:42.849Z,2.40
2018-08-18T08:24:22.442Z,2.17
2018-08-18T08:26:58.497Z,2.13
2018-08-18T08:29:39.270Z,2.50
2018-08-18T08:32:16.211Z,2.80
2018-08-18T08:34:53.906Z,3.17
2018-08-18T08:37:29.824Z,2.17
2018-08-18T08:40:10.766Z,2.70
2018-08-18T08:42:47.594Z,2.33
2018-08-18T08:45:27.526Z,2.30
2018-08-18T08:48:04.527Z,3.07
2018-08-18T08:50:42.385Z,2.93
2018-08-18T08:53:19.525Z,2.40
2018-08-18T08:55:58.980Z,2.07
2018-08-18T08:58:40.401Z,3.10
2018-08-18T09:01:17.025Z,2.27
2018-08-18T09:03:54.132Z,2.00
2018-08-18T09:06:35.505Z,2.23
2018-08-18T09:09:12.074Z,1.90
2018-08-18T09:11:51.822Z,2.10
2018-08-18T09:14:27.555Z,1.87
2018-08-18T09:17:04.799Z,2.43
2018-08-18T09:19:41.720Z,2.37
2018-08-18T09:22:19.130Z,2.33
2018-08-18T09:24:55.269Z,3.87
2018-08-18T09:27:31.218Z,1.93
2018-08-18T09:30:08.879Z,2.40
2018-08-18T09:32:46.150Z,2.50
2018-08-18T09:35:25.418Z,1.83
2018-08-18T09:38:03.025Z,2.17
2018-08-18T09:40:40.076Z,1.90
2018-08-18T09:43:25.320Z,2.20
2018-08-18T09:46:02.820Z,2.60
2018-08-18T09:48:40.528Z,2.40
2018-08-18T09:51:16.207Z,2.73
2018-08-18T09:53:52.932Z,2.30
2018-08-18T09:56:30.216Z,2.80
2018-08-18T09:59:07.138Z,2.57
2018-08-18T10:01:44.591Z,2.70
2018-08-18T10:04:21.536Z,3.10
2018-08-18T10:07:00.723Z,2.80
2018-08-18T10:09:36.494Z,3.30
2018-08-18T10:12:16.166Z,3.17
2018-08-18T10:14:52.301Z,3.37
2018-08-18T10:17:30.158Z,3.10
2018-08-18T10:20:06.296Z,3.10
2018-08-18T10:22:42.260Z,2.50
2018-08-18T10:25:18.099Z,2.50
2018-08-18T10:27:55.948Z,2.90
2018-08-18T10:30:34.076Z,3.50
2018-08-18T10:33:12.114Z,3.40
2018-08-18T10:35:48.350Z,3.77
2018-08-18T10:38:24.016Z,3.43
2018-08-18T10:41:02.473Z,3.27
2018-08-18T10:43:39.485Z,2.63
2018-08-18T10:46:16.453Z,3.40
2018-08-18T10:48:52.133Z,3.07
2018-08-18T10:51:39.367Z,2.77
2018-08-18T10:54:15.800Z,3.63
2018-08-18T10:56:52.874Z,2.97
2018-08-18T10:59:33.892Z,2.80
2018-08-18T11:02:10.366Z,3.00
2018-08-18T11:04:46.762Z,4.17
2018-08-18T11:07:22.854Z,3.00
2018-08-18T11:10:00.601Z,3.10
2018-08-18T11:12:41.155Z,2.97
2018-08-18T11:15:18.834Z,3.33
2018-08-18T11:17:56.661Z,3.10
2018-08-18T11:20:36.832Z,4.23
2018-08-18T11:23:18.151Z,4.10
2018-08-18T11:25:56.034Z,3.10
2018-08-18T11:28:32.987Z,4.40
2018-08-18T11:31:10.561Z,3.40
2018-08-18T11:33:47.003Z,3.97
2018-08-18T11:36:24.246Z,4.23
2018-08-18T11:39:03.142Z,3.87
2018-08-18T11:41:40.099Z,2.90
2018-08-18T11:44:15.754Z,2.80
2018-08-18T11:46:51.924Z,3.57
2018-08-18T11:49:29.659Z,2.83
2018-08-18T11:52:05.250Z,3.43
2018-08-18T11:54:42.394Z,2.67
2018-08-18T11:57:19.679Z,3.17
2018-08-18T11:59:57.014Z,2.47
2018-08-18T12:02:33.825Z,2.47
2018-08-18T12:05:13.428Z,2.33
2018-08-18T12:07:50.995Z,3.00
2018-08-18T12:10:28.009Z,2.83
2018-08-18T12:13:06.073Z,2.43
2018-08-18T12:15:51.432Z,2.17
2018-08-18T12:18:30.005Z,2.83
2018-08-18T12:21:06.107Z,2.20
2018-08-18T12:23:46.360Z,2.97
2018-08-18T12:26:23.950Z,2.80
2018-08-18T12:29:03.089Z,2.10
2018-08-18T12:31:39.578Z,2.97
2018-08-18T12:34:18.380Z,2.73
2018-08-18T12:36:57.902Z,2.50
2018-08-18T12:39:35.701Z,3.00
2018-08-18T12:42:16.541Z,2.00
2018-08-18T12:44:52.274Z,2.27
2018-08-18T12:47:30.002Z,1.97
2018-08-18T12:50:08.013Z,1.80
2018-08-18T12:52:48.981Z,2.40
2018-08-18T12:55:25.996Z,2.03
2018-08-18T12:58:04.012Z,2.27
2018-08-18T13:00:43.355Z,2.30
2018-08-18T13:03:20.387Z,3.07
2018-08-18T13:05:57.749Z,2.60
2018-08-18T13:08:33.419Z,2.60
2018-08-18T13:11:09.423Z,2.67
2018-08-18T13:13:47.036Z,2.33
2018-08-18T13:16:22.813Z,2.27
2018-08-18T13:19:03.951Z,1.63
2018-08-18T13:21:39.916Z,2.07
2018-08-18T13:24:17.336Z,2.00
2018-08-18T13:26:54.262Z,1.87
2018-08-18T13:29:30.049Z,2.50
2018-08-18T13:32:07.141Z,1.90
2018-08-18T13:34:44.600Z,2.07
2018-08-18T13:37:20.480Z,2.30
2018-08-18T13:40:02.156Z,1.40
2018-08-18T13:42:42.078Z,1.80
2018-08-18T13:45:25.763Z,1.70
2018-08-18T13:48:07.361Z,2.17
2018-08-18T13:50:43.485Z,2.00
2018-08-18T13:53:21.261Z,1.60
2018-08-18T13:55:56.637Z,2.67
2018-08-18T13:58:33.437Z,2.60
2018-08-18T14:01:20.696Z,1.73
2018-08-18T14:03:57.349Z,1.47
2018-08-18T14:06:39.714Z,1.63
2018-08-18T14:09:11.119Z,1.53
2018-08-18T14:11:48.629Z,1.73
2018-08-18T14:14:24.751Z,1.77
2018-08-18T14:17:02.050Z,1.63
2018-08-18T14:19:43.612Z,2.20
2018-08-18T14:22:21.375Z,1.73
2018-08-18T14:25:00.944Z,1.70
2018-08-18T14:27:36.770Z,1.60
2018-08-18T14:30:13.970Z,1.80
2018-08-18T14:32:53.790Z,1.40
2018-08-18T14:35:33.972Z,1.70
2018-08-18T14:38:11.059Z,1.83
2018-08-18T14:40:50.054Z,1.70
2018-08-18T14:43:32.192Z,1.93
2018-08-18T14:46:10.000Z,1.60
2018-08-18T14:48:46.044Z,1.93
2018-08-18T14:51:22.150Z,1.20
2018-08-18T14:53:58.257Z,1.77
2018-08-18T14:56:35.281Z,1.37
2018-08-18T14:59:10.979Z,1.20
2018-08-18T15:01:48.184Z,1.37
2018-08-18T15:04:19.047Z,1.53
2018-08-18T15:06:54.812Z,1.50
2018-08-18T15:09:41.671Z,2.03
2018-08-18T15:12:18.602Z,1.50
2018-08-18T15:14:55.790Z,1.30
2018-08-18T15:17:32.885Z,1.23
2018-08-18T15:20:08.791Z,1.50
2018-08-18T15:22:45.540Z,1.50
2018-08-18T15:25:22.255Z,2.97
2018-08-18T15:28:01.763Z,2.00
2018-08-18T15:30:38.958Z,1.80
2018-08-18T15:33:19.769Z,1.40
2018-08-18T15:35:56.656Z,1.87
2018-08-18T15:41:18.385Z,1.80
2018-08-18T15:43:55.335Z,1.80
2018-08-18T15:46:31.556Z,2.30
2018-08-18T15:49:08.769Z,1.83
2018-08-18T15:51:45.690Z,2.20
2018-08-18T15:54:23.999Z,1.57
2018-08-18T15:57:01.883Z,1.70
2018-08-18T15:59:38.759Z,1.70
2018-08-18T16:02:15.414Z,2.23
2018-08-18T16:04:54.441Z,2.70
2018-08-18T16:07:32.417Z,1.90
2018-08-18T16:10:08.566Z,1.93
2018-08-18T16:12:45.634Z,2.10
2018-08-18T16:15:24.023Z,1.97
2018-08-18T16:18:02.455Z,2.20
2018-08-18T16:20:38.533Z,2.10
2018-08-18T16:23:19.265Z,2.00
2018-08-18T16:25:55.288Z,2.00
2018-08-18T16:28:36.877Z,2.37
2018-08-18T16:31:13.966Z,4.20
2018-08-18T16:33:51.898Z,1.93
2018-08-18T16:36:33.500Z,2.67
2018-08-18T16:39:09.679Z,1.90
2018-08-18T16:41:47.482Z,2.03
2018-08-18T16:44:23.928Z,2.00
2018-08-18T16:47:03.117Z,2.40
2018-08-18T16:49:39.337Z,2.53
2018-08-18T16:52:16.063Z,2.00
2018-08-18T16:54:53.262Z,2.17
2018-08-18T16:57:32.498Z,2.60
2018-08-18T17:00:09.680Z,2.37
2018-08-18T17:02:47.525Z,2.43
2018-08-18T17:05:24.962Z,2.20
2018-08-18T17:08:03.882Z,2.50
2018-08-18T17:10:40.632Z,4.13
2018-08-18T17:13:20.633Z,2.73
2018-08-18T17:15:56.812Z,2.60
2018-08-18T17:18:33.315Z,1.83
2018-08-18T17:21:09.787Z,2.73
2018-08-18T17:23:46.685Z,2.50
2018-08-18T17:26:23.870Z,2.93
2018-08-18T17:29:00.189Z,2.80
2018-08-18T17:31:36.893Z,2.80
2018-08-18T17:34:13.823Z,3.30
2018-08-18T17:36:49.953Z,4.13
2018-08-18T17:39:28.878Z,2.87
2018-08-18T17:42:08.455Z,3.27
2018-08-18T17:44:45.681Z,3.37
2018-08-18T17:47:22.187Z,2.77
2018-08-18T17:49:59.523Z,3.03
2018-08-18T17:52:36.837Z,3.37
2018-08-18T17:55:16.434Z,2.50
2018-08-18T17:57:53.777Z,2.10
2018-08-18T18:00:32.165Z,2.70
2018-08-18T18:03:08.581Z,7.13
2018-08-18T18:05:46.499Z,2.93
2018-08-18T18:08:22.387Z,3.20
2018-08-18T18:10:56.040Z,2.70
2018-08-18T18:13:32.323Z,3.10
2018-08-18T18:16:17.548Z,3.87
2018-08-18T18:18:55.324Z,3.53
2018-08-18T18:21:31.315Z,3.53
2018-08-18T18:24:07.481Z,3.20
2018-08-18T18:26:47.113Z,4.03
2018-08-18T18:29:27.069Z,2.80
2018-08-18T18:32:03.073Z,3.20
2018-08-18T18:34:42.833Z,3.63
2018-08-18T18:37:20.369Z,3.30
2018-08-18T18:39:58.669Z,2.80
2018-08-18T18:42:35.985Z,3.70
2018-08-18T18:45:11.846Z,2.90
2018-08-18T18:47:47.918Z,3.30
2018-08-18T18:50:27.520Z,3.63
2018-08-18T18:53:05.683Z,4.10
2018-08-18T18:55:50.286Z,3.90
2018-08-18T18:58:26.853Z,4.80
2018-08-18T19:01:07.006Z,4.10
2018-08-18T19:03:44.194Z,3.87
2018-08-18T19:06:21.573Z,3.87
2018-08-18T19:09:06.250Z,4.67
2018-08-18T19:11:45.202Z,4.37
2018-08-18T19:14:22.002Z,3.70
2018-08-18T19:16:58.038Z,3.73
2018-08-18T19:19:37.939Z,5.37
2018-08-18T19:22:14.710Z,5.40
2018-08-18T19:24:50.632Z,4.23
2018-08-18T19:27:27.743Z,4.77
2018-08-18T19:30:05.025Z,4.57
2018-08-18T19:32:41.296Z,4.40
2018-08-18T19:35:16.768Z,4.77
2018-08-18T19:37:53.490Z,4.80
2018-08-18T19:40:31.083Z,4.80
2018-08-18T19:43:09.338Z,4.13
2018-08-18T19:45:47.174Z,4.47
2018-08-18T19:48:26.925Z,5.03
2018-08-18T19:51:03.758Z,5.43
2018-08-18T19:53:39.831Z,4.60
2018-08-18T19:56:18.886Z,5.57
2018-08-18T19:58:54.465Z,4.80
2018-08-18T20:01:30.348Z,5.10
2018-08-18T20:04:17.543Z,4.53
2018-08-18T20:06:53.990Z,5.03
2018-08-18T20:09:29.979Z,4.67
2018-08-18T20:12:07.397Z,4.27
2018-08-18T20:14:44.785Z,5.30
2018-08-18T20:17:23.889Z,4.63
2018-08-18T20:19:59.757Z,5.13
2018-08-18T20:22:35.943Z,5.67
2018-08-18T20:25:12.360Z,6.17
2018-08-18T20:27:49.323Z,5.40
2018-08-18T20:30:26.733Z,5.00
2018-08-18T20:33:04.417Z,5.10
2018-08-18T20:35:41.216Z,5.43
2018-08-18T20:38:17.145Z,6.10
2018-08-18T20:40:57.058Z,5.67
2018-08-18T20:43:35.101Z,6.03
2018-08-18T20:46:11.350Z,5.80
2018-08-18T20:48:48.229Z,6.23
2018-08-18T20:51:32.946Z,5.90
2018-08-18T20:54:08.848Z,5.43
2018-08-18T20:56:44.664Z,6.43
2018-08-18T20:59:20.642Z,6.17
2018-08-18T21:01:57.061Z,6.10
2018-08-18T21:04:34.267Z,6.37
2018-08-18T21:07:11.274Z,7.10
2018-08-18T21:09:47.517Z,6.80
2018-08-18T21:12:31.967Z,7.33
2018-08-18T21:15:07.645Z,6.67
2018-08-18T21:17:44.521Z,6.33
2018-08-18T21:20:21.621Z,6.57
2018-08-18T21:23:00.920Z,6.53
2018-08-18T21:25:44.362Z,6.60
2018-08-18T21:28:20.975Z,7.07
2018-08-18T21:30:56.897Z,7.13
2018-08-18T21:33:34.207Z,7.13
2018-08-18T21:36:10.863Z,7.50
2018-08-18T21:38:48.398Z,8.07
2018-08-18T21:41:27.502Z,7.13
2018-08-18T21:44:03.209Z,6.90
2018-08-18T21:46:39.984Z,7.43
2018-08-18T21:49:15.782Z,7.50
2018-08-18T21:51:51.598Z,6.60
2018-08-18T21:54:28.501Z,6.40
2018-08-18T21:57:05.621Z,7.70
2018-08-18T21:59:52.684Z,6.67
2018-08-18T22:02:39.174Z,7.43
2018-08-18T22:05:15.164Z,6.83
2018-08-18T22:07:51.687Z,7.87
2018-08-18T22:10:27.628Z,7.87
2018-08-18T22:13:03.345Z,6.90
2018-08-18T22:15:40.889Z,7.00
2018-08-18T22:18:17.218Z,6.80
2018-08-18T22:20:54.838Z,6.33
2018-08-18T22:23:31.047Z,6.93
2018-08-18T22:26:14.447Z,7.37
2018-08-18T22:29:00.639Z,7.13
2018-08-18T22:31:37.916Z,6.77
2018-08-18T22:34:15.217Z,7.70
2018-08-18T22:36:51.106Z,7.10
2018-08-18T22:39:28.081Z,8.03
2018-08-18T22:42:05.035Z,7.60
2018-08-18T22:44:41.006Z,6.87
2018-08-18T22:47:17.932Z,6.80
2018-08-18T22:49:54.818Z,7.17
2018-08-18T22:52:30.920Z,8.37
2018-08-18T22:55:08.476Z,7.30
2018-08-18T22:57:53.970Z,7.30
2018-08-18T23:00:29.838Z,6.90
2018-08-18T23:03:07.245Z,7.33
2018-08-18T23:05:43.229Z,7.77
2018-08-18T23:08:20.064Z,7.97
2018-08-18T23:10:57.165Z,6.90
2018-08-18T23:13:34.047Z,7.80
2018-08-18T23:16:11.538Z,7.87
2018-08-18T23:18:47.584Z,7.23
2018-08-18T23:21:30.860Z,7.47
2018-08-18T23:24:16.886Z,8.33
2018-08-18T23:26:58.346Z,7.70
2018-08-18T23:29:35.542Z,7.00
2018-08-18T23:32:20.756Z,6.97
2018-08-18T23:34:57.809Z,7.93
2018-08-18T23:37:34.861Z,7.93
2018-08-18T23:40:11.860Z,7.57
2018-08-18T23:42:49.202Z,7.70
2018-08-18T23:45:31.678Z,7.40
2018-08-18T23:48:14.798Z,7.77
2018-08-18T23:50:55.933Z,7.90
2018-08-18T23:53:33.220Z,7.90
2018-08-18T23:56:10.654Z,6.73
2018-08-18T23:58:47.771Z,7.77
